createdAt,value
2023-03-02T00:02:07.094Z,3.05
2023-03-02T00:04:46.891Z,3.17
2023-03-02T00:07:20.036Z,2.42
2023-03-02T00:09:48.027Z,5.05
2023-03-02T00:12:16.518Z,5.55
2023-03-02T00:14:44.556Z,5.80
2023-03-02T00:17:12.901Z,7.20
2023-03-02T00:19:42.520Z,7.28
2023-03-02T00:22:11.201Z,9.35
2023-03-02T00:24:39.357Z,6.05
2023-03-02T00:27:07.307Z,6.60
2023-03-02T00:29:35.312Z,5.78
2023-03-02T00:32:04.201Z,5.38
2023-03-02T00:34:32.619Z,4.00
2023-03-02T00:37:00.721Z,2.60
2023-03-02T00:39:28.682Z,2.42
2023-03-02T00:41:56.654Z,2.42
2023-03-02T00:44:24.542Z,1.85
2023-03-02T00:46:52.490Z,1.35
2023-03-02T00:49:20.383Z,1.88
2023-03-02T00:51:48.218Z,1.65
2023-03-02T00:54:16.180Z,2.00
2023-03-02T00:56:44.463Z,5.32
2023-03-02T00:59:29.094Z,1.20
2023-03-02T01:02:29.617Z,2.10
2023-03-02T01:04:57.692Z,1.20
2023-03-02T01:07:26.473Z,1.40
2023-03-02T01:09:54.531Z,3.17
2023-03-02T01:12:23.064Z,1.77
2023-03-02T01:14:51.106Z,1.85
2023-03-02T01:17:22.496Z,3.13
2023-03-02T01:19:50.437Z,2.53
2023-03-02T01:22:19.513Z,3.95
2023-03-02T01:24:47.421Z,3.80
2023-03-02T01:27:15.390Z,2.25
2023-03-02T01:29:43.392Z,2.38
2023-03-02T01:32:11.570Z,1.75
2023-03-02T01:34:39.571Z,3.17
2023-03-02T01:37:07.432Z,1.67
2023-03-02T01:39:35.330Z,1.25
2023-03-02T01:42:03.246Z,1.30
2023-03-02T01:44:52.502Z,1.58
2023-03-02T01:47:47.296Z,1.52
2023-03-02T01:50:26.727Z,1.52
2023-03-02T01:52:58.436Z,1.05
2023-03-02T01:55:30.989Z,1.00
2023-03-02T01:58:00.644Z,1.15
2023-03-02T02:00:33.494Z,1.17
2023-03-02T02:03:09.946Z,3.33
2023-03-02T02:05:41.328Z,1.13
2023-03-02T02:08:09.945Z,1.67
2023-03-02T02:10:39.781Z,1.63
2023-03-02T02:13:11.810Z,1.63
2023-03-02T02:15:41.738Z,2.08
2023-03-02T02:18:10.006Z,1.65
2023-03-02T02:20:46.883Z,1.90
2023-03-02T02:23:28.160Z,2.55
2023-03-02T02:25:56.169Z,2.33
2023-03-02T02:28:42.597Z,1.83
2023-03-02T02:31:10.475Z,2.00
2023-03-02T02:33:42.404Z,1.92
2023-03-02T02:36:27.199Z,1.90
2023-03-02T02:38:56.759Z,2.35
2023-03-02T02:41:30.046Z,2.33
2023-03-02T02:43:58.411Z,3.75
2023-03-02T02:46:27.383Z,3.05
2023-03-02T02:48:56.400Z,2.42
2023-03-02T02:51:29.075Z,4.47
2023-03-02T02:54:00.483Z,4.80
2023-03-02T02:56:36.338Z,3.78
2023-03-02T02:59:18.335Z,3.53
2023-03-02T03:01:47.803Z,3.25
2023-03-02T03:04:22.470Z,6.35
2023-03-02T03:06:58.045Z,5.07
2023-03-02T03:09:26.918Z,5.80
2023-03-02T03:12:09.386Z,3.45
2023-03-02T03:14:41.387Z,3.47
2023-03-02T03:17:14.564Z,5.63
2023-03-02T03:19:49.329Z,8.65
2023-03-02T03:22:18.077Z,7.55
2023-03-02T03:24:48.744Z,7.47
2023-03-02T03:27:18.824Z,8.10
2023-03-02T03:29:50.685Z,9.50
2023-03-02T03:32:21.997Z,8.25
2023-03-02T03:34:53.204Z,9.73
2023-03-02T03:37:28.786Z,9.77
2023-03-02T03:39:56.829Z,11.35
2023-03-02T03:42:24.726Z,12.95
2023-03-02T03:44:54.450Z,14.25
2023-03-02T03:47:22.639Z,19.63
2023-03-02T03:49:52.064Z,21.02
2023-03-02T03:52:31.033Z,24.23
2023-03-02T03:55:11.434Z,24.15
2023-03-02T03:57:39.923Z,25.35
2023-03-02T04:00:11.126Z,27.85
2023-03-02T04:02:42.223Z,26.00
2023-03-02T04:05:12.440Z,29.15
2023-03-02T04:07:40.850Z,28.42
2023-03-02T04:10:10.163Z,34.38
2023-03-02T04:12:41.776Z,32.88
2023-03-02T04:15:15.068Z,33.13
2023-03-02T04:17:45.267Z,29.98
2023-03-02T04:20:17.089Z,32.25
2023-03-02T04:22:51.040Z,36.10
2023-03-02T04:25:22.940Z,33.72
2023-03-02T04:27:54.555Z,35.33
2023-03-02T04:30:26.677Z,36.17
2023-03-02T04:32:57.812Z,37.65
2023-03-02T04:35:28.930Z,35.63
2023-03-02T04:37:57.260Z,35.25
2023-03-02T04:40:25.833Z,32.85
2023-03-02T04:42:53.798Z,35.58
2023-03-02T04:45:21.746Z,35.20
2023-03-02T04:47:49.686Z,35.83
2023-03-02T04:50:17.652Z,37.53
2023-03-02T04:52:45.656Z,38.17
2023-03-02T04:55:23.514Z,39.60
2023-03-02T04:57:51.536Z,38.25
2023-03-02T05:00:21.197Z,37.00
2023-03-02T05:02:49.094Z,40.63
2023-03-02T05:05:19.833Z,35.67
2023-03-02T05:07:48.110Z,35.13
2023-03-02T05:10:17.777Z,40.42
2023-03-02T05:12:55.498Z,37.75
2023-03-02T05:15:37.298Z,38.65
2023-03-02T05:18:09.205Z,37.97
2023-03-02T05:20:37.544Z,36.90
2023-03-02T05:23:07.705Z,37.92
2023-03-02T05:25:37.982Z,36.15
2023-03-02T05:28:06.273Z,40.65
2023-03-02T05:30:37.906Z,38.40
2023-03-02T05:33:06.033Z,38.90
2023-03-02T05:35:34.090Z,38.88
2023-03-02T05:38:02.034Z,39.65
2023-03-02T05:40:30.073Z,40.63
2023-03-02T05:42:58.098Z,36.05
2023-03-02T05:45:32.189Z,35.30
2023-03-02T05:48:00.115Z,38.58
2023-03-02T05:50:28.165Z,38.53
2023-03-02T05:52:56.194Z,34.05
2023-03-02T05:55:24.728Z,36.42
2023-03-02T05:57:53.532Z,36.33
2023-03-02T06:00:21.876Z,34.78
2023-03-02T06:02:49.849Z,37.72
2023-03-02T06:05:20.105Z,41.47
2023-03-02T06:07:48.052Z,40.25
2023-03-02T06:10:16.221Z,38.25
2023-03-02T06:12:44.277Z,39.10
2023-03-02T06:15:12.382Z,43.65
2023-03-02T06:17:40.549Z,37.97
2023-03-02T06:20:11.531Z,37.47
2023-03-02T06:22:47.141Z,35.85
2023-03-02T06:25:21.109Z,39.65
2023-03-02T06:27:53.986Z,36.95
2023-03-02T06:30:25.182Z,40.15
2023-03-02T06:32:53.119Z,37.00
2023-03-02T06:35:21.283Z,35.05
2023-03-02T06:37:49.342Z,35.40
2023-03-02T06:40:17.566Z,33.65
2023-03-02T06:42:45.610Z,38.13
2023-03-02T06:45:13.543Z,37.97
2023-03-02T06:47:41.638Z,39.97
2023-03-02T06:50:11.829Z,38.25
2023-03-02T06:52:39.840Z,36.60
2023-03-02T06:55:08.327Z,33.08
2023-03-02T06:57:36.394Z,36.78
2023-03-02T07:00:10.317Z,36.00
2023-03-02T07:02:38.426Z,41.22
2023-03-02T07:05:07.226Z,35.35
2023-03-02T07:07:35.397Z,35.72
2023-03-02T07:10:04.350Z,35.95
2023-03-02T07:12:32.691Z,40.88
2023-03-02T07:15:00.774Z,34.10
2023-03-02T07:17:28.829Z,36.80
2023-03-02T07:19:57.060Z,36.58
2023-03-02T07:22:25.102Z,32.42
2023-03-02T07:24:53.156Z,35.42
2023-03-02T07:27:21.187Z,26.02
2023-03-02T07:29:49.498Z,28.55
2023-03-02T07:32:17.651Z,32.47
2023-03-02T07:34:45.617Z,28.23
2023-03-02T07:37:13.694Z,27.23
2023-03-02T07:39:41.589Z,30.27
2023-03-02T07:42:12.524Z,26.45
2023-03-02T07:44:43.298Z,26.00
2023-03-02T07:47:11.356Z,28.38
2023-03-02T07:49:39.636Z,25.63
2023-03-02T07:52:07.695Z,27.42
2023-03-02T07:54:35.648Z,26.27
2023-03-02T07:57:03.756Z,27.48
2023-03-02T07:59:31.700Z,22.63
2023-03-02T08:01:59.879Z,24.00
2023-03-02T08:04:28.324Z,24.02
2023-03-02T08:06:56.380Z,24.73
2023-03-02T08:09:24.712Z,22.33
2023-03-02T08:11:52.609Z,28.80
2023-03-02T08:14:20.582Z,27.38
2023-03-02T08:16:48.681Z,28.35
2023-03-02T08:19:16.640Z,27.83
2023-03-02T08:21:44.940Z,26.90
2023-03-02T08:24:13.140Z,26.02
2023-03-02T08:26:41.196Z,27.48
2023-03-02T08:29:09.698Z,27.85
2023-03-02T08:31:37.689Z,25.52
2023-03-02T08:34:06.152Z,27.42
2023-03-02T08:36:34.364Z,21.75
2023-03-02T08:39:02.830Z,24.73
2023-03-02T08:41:30.970Z,23.52
2023-03-02T08:43:59.141Z,25.30
2023-03-02T08:46:27.165Z,25.75
2023-03-02T08:48:55.283Z,21.15
2023-03-02T08:51:25.677Z,28.85
2023-03-02T08:53:55.661Z,21.27
2023-03-02T08:56:32.687Z,17.90
2023-03-02T08:59:04.072Z,20.15
2023-03-02T09:01:36.363Z,17.67
2023-03-02T09:04:06.922Z,19.40
2023-03-02T09:06:38.816Z,16.67
2023-03-02T09:09:08.230Z,10.80
2023-03-02T09:11:37.035Z,7.43
2023-03-02T09:14:05.484Z,7.07
2023-03-02T09:16:33.495Z,9.50
2023-03-02T09:19:01.847Z,10.85
2023-03-02T09:21:29.860Z,14.10
2023-03-02T09:23:58.638Z,9.65
2023-03-02T09:26:28.033Z,11.10
2023-03-02T09:28:56.940Z,9.90
2023-03-02T09:31:25.386Z,11.68
2023-03-02T09:33:53.465Z,8.85
2023-03-02T09:36:24.211Z,10.48
2023-03-02T09:38:52.419Z,10.98
2023-03-02T09:41:20.497Z,8.50
2023-03-02T09:43:48.482Z,8.77
2023-03-02T09:46:32.151Z,12.98
2023-03-02T09:49:32.375Z,10.95
2023-03-02T09:52:19.030Z,10.23
2023-03-02T09:54:47.102Z,9.18
2023-03-02T09:57:24.292Z,7.93
2023-03-02T10:00:18.193Z,11.13
2023-03-02T10:02:49.063Z,8.15
2023-03-02T10:05:23.457Z,9.52
2023-03-02T10:07:52.152Z,8.98
2023-03-02T10:10:40.855Z,7.35
2023-03-02T10:13:20.507Z,9.55
2023-03-02T10:16:14.462Z,6.97
2023-03-02T10:18:48.452Z,78.40
2023-03-02T10:21:33.329Z,44.20
2023-03-02T10:24:10.796Z,9.88
2023-03-02T10:26:45.076Z,8.80
2023-03-02T10:29:30.932Z,7.75
2023-03-02T10:32:23.760Z,7.85
2023-03-02T10:34:53.635Z,8.70
2023-03-02T10:37:28.878Z,7.70
2023-03-02T10:39:57.276Z,5.18
2023-03-02T10:42:42.905Z,7.88
2023-03-02T10:45:43.027Z,4.35
2023-03-02T10:48:14.380Z,9.68
2023-03-02T10:50:44.238Z,2.50
2023-03-02T10:53:18.189Z,7.38
2023-03-02T10:55:49.805Z,4.50
2023-03-02T10:58:32.299Z,2.45
2023-03-02T11:01:06.088Z,5.47
2023-03-02T11:03:34.472Z,3.70
2023-03-02T11:06:19.389Z,3.47
2023-03-02T11:08:57.807Z,3.17
2023-03-02T11:11:26.534Z,2.95
2023-03-02T11:13:56.635Z,4.88
2023-03-02T11:16:32.290Z,5.35
2023-03-02T11:19:14.395Z,5.78
2023-03-02T11:22:11.035Z,4.20
2023-03-02T11:24:49.437Z,2.78
2023-03-02T11:27:22.950Z,5.45
2023-03-02T11:29:57.573Z,9.45
2023-03-02T11:32:36.278Z,12.43
2023-03-02T11:35:11.750Z,6.10
2023-03-02T11:37:48.439Z,8.10
2023-03-02T11:40:31.750Z,2.22
2023-03-02T11:43:02.136Z,3.50
2023-03-02T11:45:35.638Z,1.90
2023-03-02T11:48:08.488Z,1.40
2023-03-02T11:50:54.712Z,2.53
2023-03-02T11:53:26.616Z,3.60
2023-03-02T11:55:54.649Z,1.92
2023-03-02T11:58:26.191Z,1.98
2023-03-02T12:00:56.292Z,2.00
2023-03-02T12:03:38.394Z,4.97
2023-03-02T12:06:28.874Z,3.72
2023-03-02T12:09:25.001Z,4.72
2023-03-02T12:12:00.722Z,5.15
2023-03-02T12:14:38.411Z,1.58
2023-03-02T12:17:26.062Z,2.45
2023-03-02T12:20:07.976Z,6.32
2023-03-02T12:22:38.070Z,2.13
2023-03-02T12:25:21.351Z,3.55
2023-03-02T12:27:52.831Z,3.92
2023-03-02T12:30:28.463Z,7.22
2023-03-02T12:33:19.831Z,1.88
2023-03-02T12:35:51.359Z,1.73
2023-03-02T12:38:31.279Z,2.85
2023-03-02T12:41:46.922Z,4.35
2023-03-02T12:44:31.960Z,2.05
2023-03-02T12:47:02.956Z,4.18
2023-03-02T12:49:47.617Z,2.08
2023-03-02T12:52:58.145Z,2.67
2023-03-02T12:55:26.680Z,3.50
2023-03-02T12:58:01.607Z,2.72
2023-03-02T13:00:33.018Z,7.50
2023-03-02T13:03:07.662Z,3.22
2023-03-02T13:05:36.760Z,4.00
2023-03-02T13:08:21.407Z,4.43
2023-03-02T13:10:50.297Z,2.10
2023-03-02T13:13:27.145Z,4.28
2023-03-02T13:15:58.630Z,4.13
2023-03-02T13:18:33.363Z,2.72
2023-03-02T13:21:04.046Z,2.58
2023-03-02T13:23:33.840Z,2.03
2023-03-02T13:26:04.875Z,2.28
2023-03-02T13:28:38.597Z,2.33
2023-03-02T13:31:19.928Z,1.80
2023-03-02T13:33:50.710Z,3.20
2023-03-02T13:36:31.132Z,2.78
2023-03-02T13:39:00.531Z,1.65
2023-03-02T13:41:31.530Z,4.40
2023-03-02T13:44:11.147Z,2.22
2023-03-02T13:46:41.762Z,3.65
2023-03-02T13:49:11.474Z,2.80
2023-03-02T13:51:43.308Z,3.13
2023-03-02T13:54:26.878Z,2.58
2023-03-02T13:56:57.189Z,4.13
2023-03-02T13:59:25.515Z,2.28
2023-03-02T14:01:53.413Z,2.80
2023-03-02T14:04:26.013Z,2.63
2023-03-02T14:06:55.142Z,2.53
2023-03-02T14:09:23.095Z,3.67
2023-03-02T14:11:54.034Z,5.63
2023-03-02T14:14:25.266Z,2.53
2023-03-02T14:16:53.144Z,3.92
2023-03-02T14:19:21.517Z,2.92
2023-03-02T14:21:49.375Z,3.00
2023-03-02T14:24:17.184Z,3.25
2023-03-02T14:26:48.202Z,4.05
2023-03-02T14:29:26.922Z,3.15
2023-03-02T14:31:56.461Z,2.90
2023-03-02T14:34:24.525Z,5.40
2023-03-02T14:36:55.512Z,2.92
2023-03-02T14:39:32.774Z,2.20
2023-03-02T14:42:00.769Z,1.83
2023-03-02T14:44:28.618Z,4.50
2023-03-02T14:46:57.723Z,5.53
2023-03-02T14:49:25.862Z,3.65
2023-03-02T14:52:23.717Z,4.70
2023-03-02T14:54:59.040Z,3.63
2023-03-02T14:57:29.407Z,3.03
2023-03-02T15:00:00.086Z,3.17
2023-03-02T15:02:28.865Z,5.15
2023-03-02T15:04:57.672Z,2.35
2023-03-02T15:07:27.890Z,1.42
2023-03-02T15:09:57.702Z,3.80
2023-03-02T15:12:25.620Z,1.63
2023-03-02T15:14:53.524Z,6.00
2023-03-02T15:17:21.423Z,2.78
2023-03-02T15:19:49.409Z,3.70
2023-03-02T15:22:17.682Z,1.92
2023-03-02T15:24:45.616Z,1.52
2023-03-02T15:27:13.471Z,2.60
2023-03-02T15:29:46.341Z,3.17
2023-03-02T15:32:15.070Z,8.38
2023-03-02T15:34:43.416Z,4.30
2023-03-02T15:37:11.960Z,3.38
2023-03-02T15:39:40.435Z,3.25
2023-03-02T15:42:08.608Z,5.97
2023-03-02T15:44:36.521Z,3.53
2023-03-02T15:47:04.782Z,3.45
2023-03-02T15:49:33.065Z,5.45
2023-03-02T15:52:01.489Z,6.75
2023-03-02T15:54:29.606Z,5.10
2023-03-02T15:56:57.931Z,7.93
2023-03-02T15:59:28.734Z,5.78
2023-03-02T16:02:02.351Z,4.70
2023-03-02T16:04:32.656Z,10.07
2023-03-02T16:07:00.945Z,4.90
2023-03-02T16:09:29.262Z,7.78
2023-03-02T16:11:57.914Z,6.90
2023-03-02T16:14:26.300Z,5.50
2023-03-02T16:16:54.367Z,9.88
2023-03-02T16:19:22.232Z,19.17
2023-03-02T16:21:50.149Z,18.30
2023-03-02T16:24:18.151Z,13.88
2023-03-02T16:26:46.096Z,66.90
2023-03-02T16:29:14.274Z,25.88
2023-03-02T16:31:45.511Z,29.48
2023-03-02T16:34:14.241Z,19.73
2023-03-02T16:36:42.632Z,17.23
2023-03-02T16:39:11.974Z,15.63
2023-03-02T16:41:42.643Z,14.18
2023-03-02T16:44:11.882Z,14.50
2023-03-02T16:46:40.416Z,25.75
2023-03-02T16:49:08.376Z,22.38
2023-03-02T16:51:36.563Z,34.55
2023-03-02T16:54:05.319Z,45.00
2023-03-02T16:56:51.904Z,58.85
2023-03-02T16:59:19.847Z,45.28
2023-03-02T17:01:47.893Z,15.50
2023-03-02T17:04:18.712Z,14.85
2023-03-02T17:07:03.112Z,32.17
2023-03-02T17:09:31.730Z,22.38
2023-03-02T17:11:59.755Z,22.00
2023-03-02T17:14:28.360Z,19.40
2023-03-02T17:16:59.616Z,22.30
2023-03-02T17:19:29.732Z,21.77
2023-03-02T17:22:02.025Z,18.38
2023-03-02T17:24:30.529Z,26.43
2023-03-02T17:26:58.779Z,20.17
2023-03-02T17:29:27.071Z,22.95
2023-03-02T17:31:55.564Z,21.83
2023-03-02T17:34:23.814Z,32.22
2023-03-02T17:36:51.886Z,29.52
2023-03-02T17:39:20.182Z,30.65
2023-03-02T17:41:48.302Z,23.15
2023-03-02T17:44:16.460Z,22.83
2023-03-02T17:46:45.880Z,21.58
2023-03-02T17:49:14.160Z,41.40
2023-03-02T17:51:42.330Z,37.15
2023-03-02T17:54:10.479Z,145.07
2023-03-02T17:56:38.686Z,62.63
2023-03-02T17:59:07.191Z,30.33
2023-03-02T18:01:35.572Z,21.83
2023-03-02T18:04:03.858Z,24.08
2023-03-02T18:06:32.292Z,25.48
2023-03-02T18:09:00.335Z,21.27
2023-03-02T18:11:28.486Z,24.15
2023-03-02T18:13:56.761Z,31.15
2023-03-02T18:16:28.357Z,21.33
2023-03-02T18:18:57.649Z,24.17
2023-03-02T18:21:26.172Z,24.08
2023-03-02T18:23:55.023Z,28.38
2023-03-02T18:26:23.148Z,24.50
2023-03-02T18:28:51.338Z,23.52
2023-03-02T18:31:20.527Z,23.42
2023-03-02T18:33:49.196Z,30.90
2023-03-02T18:36:17.321Z,25.90
2023-03-02T18:38:45.631Z,26.15
2023-03-02T18:41:14.516Z,24.80
2023-03-02T18:43:43.105Z,35.60
2023-03-02T18:46:25.635Z,46.67
2023-03-02T18:48:55.678Z,44.00
2023-03-02T18:51:25.699Z,30.15
2023-03-02T18:53:54.907Z,26.33
2023-03-02T18:56:23.729Z,34.67
2023-03-02T18:58:52.445Z,30.30
2023-03-02T19:01:21.532Z,29.30
2023-03-02T19:03:50.278Z,30.25
2023-03-02T19:06:18.462Z,36.03
2023-03-02T19:08:48.444Z,32.30
2023-03-02T19:11:16.583Z,35.90
2023-03-02T19:13:44.644Z,29.63
2023-03-02T19:16:14.265Z,24.52
2023-03-02T19:18:42.595Z,27.77
2023-03-02T19:21:10.751Z,31.67
2023-03-02T19:23:38.950Z,26.42
2023-03-02T19:26:07.677Z,27.20
2023-03-02T19:28:37.565Z,25.17
2023-03-02T19:31:09.130Z,22.15
2023-03-02T19:33:37.965Z,26.95
2023-03-02T19:36:07.054Z,27.10
2023-03-02T19:38:38.118Z,30.27
2023-03-02T19:41:06.505Z,21.95
2023-03-02T19:43:34.721Z,26.13
2023-03-02T19:46:03.006Z,24.98
2023-03-02T19:48:31.341Z,26.45
2023-03-02T19:50:59.522Z,27.67
2023-03-02T19:53:27.650Z,30.17
2023-03-02T19:56:03.847Z,29.83
2023-03-02T19:58:33.720Z,26.88
2023-03-02T20:01:04.296Z,25.52
2023-03-02T20:03:32.500Z,32.92
2023-03-02T20:06:00.772Z,25.13
2023-03-02T20:08:29.383Z,30.95
2023-03-02T20:10:57.405Z,29.48
2023-03-02T20:13:27.149Z,33.35
2023-03-02T20:15:55.441Z,28.77
2023-03-02T20:18:23.469Z,31.95
2023-03-02T20:20:51.574Z,33.63
2023-03-02T20:23:19.729Z,29.35
2023-03-02T20:25:48.497Z,31.48
2023-03-02T20:28:22.873Z,51.83
2023-03-02T20:30:56.879Z,42.05
2023-03-02T20:33:32.292Z,33.95
2023-03-02T20:36:04.490Z,33.25
2023-03-02T20:38:38.221Z,40.77
2023-03-02T20:41:09.387Z,42.53
2023-03-02T20:43:38.730Z,40.85
2023-03-02T20:46:10.862Z,41.63
2023-03-02T20:48:40.897Z,32.50
2023-03-02T20:51:10.829Z,37.60
2023-03-02T20:53:39.329Z,34.15
2023-03-02T20:56:07.525Z,39.38
2023-03-02T20:58:38.799Z,32.97
2023-03-02T21:01:31.530Z,36.42
2023-03-02T21:04:00.035Z,28.70
2023-03-02T21:06:29.756Z,30.02
2023-03-02T21:09:05.042Z,31.15
2023-03-02T21:11:34.548Z,27.75
2023-03-02T21:14:03.199Z,25.08
2023-03-02T21:16:36.325Z,26.67
2023-03-02T21:19:10.335Z,36.05
2023-03-02T21:21:42.326Z,25.45
2023-03-02T21:24:13.261Z,40.25
2023-03-02T21:26:41.887Z,23.58
2023-03-02T21:29:11.961Z,24.55
2023-03-02T21:31:42.543Z,29.15
2023-03-02T21:34:12.716Z,29.23
2023-03-02T21:36:41.129Z,30.65
2023-03-02T21:39:09.891Z,30.02
2023-03-02T21:41:38.116Z,39.45
2023-03-02T21:44:06.861Z,35.63
2023-03-02T21:46:37.910Z,28.38
2023-03-02T21:49:06.567Z,26.55
2023-03-02T21:51:34.987Z,26.77
2023-03-02T21:54:03.437Z,26.15
2023-03-02T21:56:31.408Z,25.98
2023-03-02T21:58:59.822Z,27.77
2023-03-02T22:01:30.012Z,27.55
2023-03-02T22:03:57.966Z,28.52
2023-03-02T22:06:29.732Z,25.88
2023-03-02T22:08:58.038Z,29.73
2023-03-02T22:11:34.485Z,23.67
2023-03-02T22:14:12.359Z,24.80
2023-03-02T22:16:43.045Z,25.88
2023-03-02T22:19:38.520Z,26.35
2023-03-02T22:22:19.435Z,25.83
2023-03-02T22:24:51.338Z,27.23
2023-03-02T22:27:28.606Z,25.52
2023-03-02T22:29:59.479Z,19.77
2023-03-02T22:32:30.455Z,22.80
2023-03-02T22:35:01.906Z,26.90
2023-03-02T22:37:33.566Z,23.52
2023-03-02T22:40:08.512Z,22.38
2023-03-02T22:42:36.561Z,22.38
2023-03-02T22:45:17.361Z,19.40
2023-03-02T22:47:49.411Z,24.65
2023-03-02T22:50:25.540Z,23.67
2023-03-02T22:52:56.284Z,21.48
2023-03-02T22:55:43.254Z,22.17
2023-03-02T22:58:43.836Z,23.67
2023-03-02T23:01:21.278Z,23.42
2023-03-02T23:03:52.884Z,20.02
2023-03-02T23:06:34.031Z,24.38
2023-03-02T23:09:04.889Z,19.73
2023-03-02T23:11:38.198Z,22.08
2023-03-02T23:17:13.011Z,21.58
2023-03-02T23:19:40.970Z,23.95
2023-03-02T23:22:09.735Z,21.63
2023-03-02T23:24:37.662Z,24.23
2023-03-02T23:27:05.904Z,21.98
2023-03-02T23:29:33.845Z,23.20
2023-03-02T23:32:02.263Z,25.13
2023-03-02T23:34:31.413Z,25.80
2023-03-02T23:37:00.232Z,23.88
2023-03-02T23:39:28.171Z,20.05
2023-03-02T23:41:56.322Z,20.08
2023-03-02T23:44:24.231Z,21.25
2023-03-02T23:46:52.569Z,20.70
2023-03-02T23:49:20.524Z,20.02
2023-03-02T23:51:48.843Z,20.25
2023-03-02T23:54:16.818Z,23.48
2023-03-02T23:56:44.640Z,24.02
2023-03-02T23:59:12.607Z,21.45
